עמוד ראשי
METAR-TAF:

METAR-TAF

שדות תעופה :

Seldovia, אלסקה, ארצות הברית

קו רוחב: 59-27N, קו אורך: 151-42W, גובה: 9מטר

תצפית מזג אוויר נוכחית

הדו"ח נערך לפני 32דקות, בשעה 16:53 UTC
רוח 3קשר מכיוון דרום
טמפרטורת 11 צלסיוס
לחות 71%
לחץ 1018 hPa
ראות: 16.1קילומטר
מעונן בגובה 1500רגל

METAR: PASO 191653Z AUTO 17003KT 10SM OVC015 11/06 A3007 RMK AO2 SLP181 T01060061 TSNO

זמן: 09:25 (17:25 UTC)


TAF: חסר

תצפיות ותחזיות מזג אוויר לגבי יותר מ- 4,000 שדות תעופה ברחבי העולם. דוחות METAR ו- TAF.

התחנות הזמינות מסומנות בנקודות צהובות ואדומות על גבי המפה.

העבר את העכבר לנקודה הצבעונית על מנת לראות את שם התחנה.

לאחר מכן, לחץ כדי לראות את תוכן ואת תחזיות מזג האוויר.

כדי לשנות את המפה: לחץ על הכפתורים הירוקים עם הפלוס השחור כדי להתקרב; על הכפתור הירוק עם המקף כדי להתרחק; או בחיצים הירוקים למפות סמוכות.


METAR-TAF: